Station Historical Data
Daily Summary for June 27, 2012 Units:  Both    English   Metric
« Previous Day
Next Day »
Daily Weekly Monthly Yearly Custom
  High: Low: Average:
Temperature: 95.5 °F /  35.3 °C 59.7 °F /  15.4 °C 77.9 °F /  25.5 °C
Dew Point: 60.8 °F /  16 °C 48.0 °F /  8.9 °C 54.2 °F /  12.3 °C
Humidity: 68% 25% 46%
Wind Speed: 7.0mph /  11.3km/h - 2.3mph /  3.7km/h
Wind Gust: 10.0mph /  16.1km/h - -
Wind- - SE
Pressure: 29.96 in /  1014.4 hPa 29.82 in /  1009.7 hPa -
Precipitation: 0.00 in /  0 mm    
Historical Graphs
 
 
Tabular Data for June 27, 2012
Time Temperature Dew Point Pressure Wind Wind Speed Wind Gust Humidity Rainfall Rate (Hourly) Conditions
00:00 68.6 °F /  20.3 °C 48.7 °F /  9.3 °C 29.83in /  1010hPa North 2.0mph /  3.2km/h 3.0mph /  4.8km/h 49% 0.00in /  0mm
00:05 68.6 °F /  20.3 °C 48.7 °F /  9.3 °C 29.83in /  1010hPa North 2.0mph /  3.2km/h 3.0mph /  4.8km/h 49% 0.00in /  0mm
00:10 68.6 °F /  20.3 °C 48.7 °F /  9.3 °C 29.83in /  1010hPa North 1.0mph /  1.6km/h 3.0mph /  4.8km/h 49% 0.00in /  0mm
00:15 68.5 °F /  20.3 °C 48.1 °F /  8.9 °C 29.83in /  1010hPa NNE 1.0mph /  1.6km/h 1.0mph /  1.6km/h 48% 0.00in /  0mm
00:20 68.5 °F /  20.3 °C 48.1 °F /  8.9 °C 29.83in /  1010hPa North 1.0mph /  1.6km/h 2.0mph /  3.2km/h 48% 0.00in /  0mm
00:25 68.6 °F /  20.3 °C 48.2 °F /  9 °C 29.83in /  1010hPa NNE 1.0mph /  1.6km/h 3.0mph /  4.8km/h 48% 0.00in /  0mm
00:30 68.3 °F /  20.2 °C 48.4 °F /  9.1 °C 29.83in /  1010hPa Calm   1.0mph /  1.6km/h 49% 0.00in /  0mm
00:35 68.0 °F /  20 °C 48.2 °F /  9 °C 29.83in /  1010hPa Calm   1.0mph /  1.6km/h 49% 0.00in /  0mm
00:40 67.8 °F /  19.9 °C 48.0 °F /  8.9 °C 29.84in /  1010.4hPa Calm   1.0mph /  1.6km/h 49% 0.00in /  0mm
00:45 67.3 °F /  19.6 °C 48.0 °F /  8.9 °C 29.84in /  1010.4hPa Calm   1.0mph /  1.6km/h 50% 0.00in /  0mm
00:50 67.1 °F /  19.5 °C 48.4 °F /  9.1 °C 29.83in /  1010hPa NE 1.0mph /  1.6km/h 1.0mph /  1.6km/h 51% 0.00in /  0mm
00:55 67.2 °F /  19.6 °C 48.0 °F /  8.9 °C 29.83in /  1010hPa NE 1.0mph /  1.6km/h 1.0mph /  1.6km/h 50% 0.00in /  0mm
01:00 67.5 °F /  19.7 °C 48.2 °F /  9 °C 29.83in /  1010hPa NNE 1.0mph /  1.6km/h 2.0mph /  3.2km/h 50% 0.00in /  0mm
01:05 67.7 °F /  19.8 °C 48.4 °F /  9.1 °C 29.83in /  1010hPa NNE 1.0mph /  1.6km/h 2.0mph /  3.2km/h 50% 0.00in /  0mm
01:10 67.7 °F /  19.8 °C 48.4 °F /  9.1 °C 29.83in /  1010hPa NE 1.0mph /  1.6km/h 2.0mph /  3.2km/h 50% 0.00in /  0mm
01:15 67.7 °F /  19.8 °C 48.4 °F /  9.1 °C 29.83in /  1010hPa NE 1.0mph /  1.6km/h 2.0mph /  3.2km/h 50% 0.00in /  0mm
01:20 67.6 °F /  19.8 °C 48.3 °F /  9.1 °C 29.83in /  1010hPa Calm   2.0mph /  3.2km/h 50% 0.00in /  0mm
01:25 67.3 °F /  19.6 °C 48.6 °F /  9.2 °C 29.83in /  1010hPa North 1.0mph /  1.6km/h 4.0mph /  6.4km/h 51% 0.00in /  0mm
01:31 67.0 °F /  19.4 °C 48.8 °F /  9.3 °C 29.83in /  1010hPa NE 1.0mph /  1.6km/h 3.0mph /  4.8km/h 52% 0.00in /  0mm
01:36 67.1 °F /  19.5 °C 48.9 °F /  9.4 °C 29.83in /  1010hPa NE 3.0mph /  4.8km/h 5.0mph /  8km/h 52% 0.00in /  0mm
01:41 67.3 °F /  19.6 °C 49.1 °F /  9.5 °C 29.83in /  1010hPa NNE 2.0mph /  3.2km/h 6.0mph /  9.7km/h 52% 0.00in /  0mm
01:46 67.3 °F /  19.6 °C 49.1 °F /  9.5 °C 29.83in /  1010hPa NE 3.0mph /  4.8km/h 5.0mph /  8km/h 52% 0.00in /  0mm
01:51 67.5 °F /  19.7 °C 49.3 °F /  9.6 °C 29.83in /  1010hPa NE 4.0mph /  6.4km/h 4.0mph /  6.4km/h 52% 0.00in /  0mm
01:56 67.9 °F /  19.9 °C 49.1 °F /  9.5 °C 29.83in /  1010hPa NE 3.0mph /  4.8km/h 6.0mph /  9.7km/h 51% 0.00in /  0mm
02:01 67.9 °F /  19.9 °C 49.1 °F /  9.5 °C 29.83in /  1010hPa NNE 4.0mph /  6.4km/h 4.0mph /  6.4km/h 51% 0.00in /  0mm
02:06 67.9 °F /  19.9 °C 49.1 °F /  9.5 °C 29.83in /  1010hPa NNE 2.0mph /  3.2km/h 4.0mph /  6.4km/h 51% 0.00in /  0mm
02:11 67.7 °F /  19.8 °C 49.5 °F /  9.7 °C 29.83in /  1010hPa NE 1.0mph /  1.6km/h 4.0mph /  6.4km/h 52% 0.00in /  0mm
02:16 67.4 °F /  19.7 °C 49.2 °F /  9.6 °C 29.83in /  1010hPa NE 3.0mph /  4.8km/h 3.0mph /  4.8km/h 52% 0.00in /  0mm
02:21 67.3 °F /  19.6 °C 49.1 °F /  9.5 °C 29.83in /  1010hPa NNE 3.0mph /  4.8km/h 5.0mph /  8km/h 52% 0.00in /  0mm
02:26 67.2 °F /  19.6 °C 49.5 °F /  9.7 °C 29.83in /  1010hPa NNW 2.0mph /  3.2km/h 4.0mph /  6.4km/h 53% 0.00in /  0mm
02:31 67.1 °F /  19.5 °C 49.4 °F /  9.7 °C 29.82in /  1009.7hPa North 4.0mph /  6.4km/h 6.0mph /  9.7km/h 53% 0.00in /  0mm
02:36 67.2 °F /  19.6 °C 49.5 °F /  9.7 °C 29.82in /  1009.7hPa NE 3.0mph /  4.8km/h 5.0mph /  8km/h 53% 0.00in /  0mm
02:41 67.3 °F /  19.6 °C 49.1 °F /  9.5 °C 29.82in /  1009.7hPa NE 4.0mph /  6.4km/h 5.0mph /  8km/h 52% 0.00in /  0mm
02:46 67.5 °F /  19.7 °C 49.3 °F /  9.6 °C 29.82in /  1009.7hPa NE 3.0mph /  4.8km/h 5.0mph /  8km/h 52% 0.00in /  0mm
02:51 67.4 °F /  19.7 °C 49.2 °F /  9.6 °C 29.82in /  1009.7hPa NE 3.0mph /  4.8km/h 5.0mph /  8km/h 52% 0.00in /  0mm
02:56 67.3 °F /  19.6 °C 49.1 °F /  9.5 °C 29.82in /  1009.7hPa NE 4.0mph /  6.4km/h 4.0mph /  6.4km/h 52% 0.00in /  0mm
03:01 67.2 °F /  19.6 °C 49.0 °F /  9.4 °C 29.83in /  1010hPa NE 4.0mph /  6.4km/h 5.0mph /  8km/h 52% 0.00in /  0mm
03:06 67.0 °F /  19.4 °C 49.3 °F /  9.6 °C 29.82in /  1009.7hPa NE 2.0mph /  3.2km/h 6.0mph /  9.7km/h 53% 0.00in /  0mm
03:11 66.9 °F /  19.4 °C 49.2 °F /  9.6 °C 29.82in /  1009.7hPa NE 2.0mph /  3.2km/h 4.0mph /  6.4km/h 53% 0.00in /  0mm
03:16 66.9 °F /  19.4 °C 49.2 °F /  9.6 °C 29.82in /  1009.7hPa NNE 3.0mph /  4.8km/h 5.0mph /  8km/h 53% 0.00in /  0mm
03:21 66.9 °F /  19.4 °C 49.2 °F /  9.6 °C 29.82in /  1009.7hPa NNE 2.0mph /  3.2km/h 4.0mph /  6.4km/h 53% 0.00in /  0mm
03:27 66.6 °F /  19.2 °C 49.0 °F /  9.4 °C 29.83in /  1010hPa NNE 2.0mph /  3.2km/h 4.0mph /  6.4km/h 53% 0.00in /  0mm
03:32 66.2 °F /  19 °C 49.1 °F /  9.5 °C 29.83in /  1010hPa NNE 2.0mph /  3.2km/h 4.0mph /  6.4km/h 54% 0.00in /  0mm
03:37 66.0 °F /  18.9 °C 48.9 °F /  9.4 °C 29.83in /  1010hPa NNE 4.0mph /  6.4km/h 4.0mph /  6.4km/h 54% 0.00in /  0mm
03:42 65.8 °F /  18.8 °C 49.2 °F /  9.6 °C 29.83in /  1010hPa NNE 1.0mph /  1.6km/h 2.0mph /  3.2km/h 55% 0.00in /  0mm
03:47 65.4 °F /  18.6 °C 48.8 °F /  9.3 °C 29.83in /  1010hPa NNE 2.0mph /  3.2km/h 4.0mph /  6.4km/h 55% 0.00in /  0mm
03:52 65.4 °F /  18.6 °C 49.3 °F /  9.6 °C 29.83in /  1010hPa NNE 1.0mph /  1.6km/h 3.0mph /  4.8km/h 56% 0.00in /  0mm
03:57 65.3 °F /  18.5 °C 49.2 °F /  9.6 °C 29.83in /  1010hPa NE 1.0mph /  1.6km/h 3.0mph /  4.8km/h 56% 0.00in /  0mm
04:02 65.3 °F /  18.5 °C 49.2 °F /  9.6 °C 29.83in /  1010hPa NE 2.0mph /  3.2km/h 3.0mph /  4.8km/h 56% 0.00in /  0mm
04:07 65.5 °F /  18.6 °C 48.9 °F /  9.4 °C 29.83in /  1010hPa NE 1.0mph /  1.6km/h 3.0mph /  4.8km/h 55% 0.00in /  0mm
04:12 65.5 °F /  18.6 °C 48.9 °F /  9.4 °C 29.83in /  1010hPa NE 1.0mph /  1.6km/h 3.0mph /  4.8km/h 55% 0.00in /  0mm
04:17 65.2 °F /  18.4 °C 49.1 °F /  9.5 °C 29.83in /  1010hPa Calm   1.0mph /  1.6km/h 56% 0.00in /  0mm
04:22 65.1 °F /  18.4 °C 49.0 °F /  9.4 °C 29.83in /  1010hPa NE 3.0mph /  4.8km/h 3.0mph /  4.8km/h 56% 0.00in /  0mm
04:27 65.2 °F /  18.4 °C 49.1 °F /  9.5 °C 29.83in /  1010hPa NE 2.0mph /  3.2km/h 3.0mph /  4.8km/h 56% 0.00in /  0mm
04:32 65.2 °F /  18.4 °C 49.1 °F /  9.5 °C 29.83in /  1010hPa ENE 2.0mph /  3.2km/h 3.0mph /  4.8km/h 56% 0.00in /  0mm
04:37 65.2 °F /  18.4 °C 49.1 °F /  9.5 °C 29.83in /  1010hPa NE 3.0mph /  4.8km/h 3.0mph /  4.8km/h 56% 0.00in /  0mm
04:42 65.2 °F /  18.4 °C 49.1 °F /  9.5 °C 29.83in /  1010hPa NE 1.0mph /  1.6km/h 3.0mph /  4.8km/h 56% 0.00in /  0mm
04:47 65.0 °F /  18.3 °C 48.9 °F /  9.4 °C 29.83in /  1010hPa Calm   3.0mph /  4.8km/h 56% 0.00in /  0mm
04:52 64.7 °F /  18.2 °C 49.1 °F /  9.5 °C 29.83in /  1010hPa ENE 1.0mph /  1.6km/h 3.0mph /  4.8km/h 57% 0.00in /  0mm
04:57 64.6 °F /  18.1 °C 49.0 °F /  9.4 °C 29.83in /  1010hPa Calm   2.0mph /  3.2km/h 57% 0.00in /  0mm
05:02 64.6 °F /  18.1 °C 49.0 °F /  9.4 °C 29.83in /  1010hPa Calm   2.0mph /  3.2km/h 57% 0.00in /  0mm
05:07 64.3 °F /  17.9 °C 49.2 °F /  9.6 °C 29.83in /  1010hPa ENE 1.0mph /  1.6km/h 2.0mph /  3.2km/h 58% 0.00in /  0mm
05:12 64.2 °F /  17.9 °C 49.1 °F /  9.5 °C 29.83in /  1010hPa NE 1.0mph /  1.6km/h 3.0mph /  4.8km/h 58% 0.00in /  0mm
05:17 64.1 °F /  17.8 °C 49.0 °F /  9.4 °C 29.83in /  1010hPa NE 2.0mph /  3.2km/h 4.0mph /  6.4km/h 58% 0.00in /  0mm
05:22 63.8 °F /  17.7 °C 49.2 °F /  9.6 °C 29.83in /  1010hPa NE 1.0mph /  1.6km/h 2.0mph /  3.2km/h 59% 0.00in /  0mm
05:27 63.5 °F /  17.5 °C 48.9 °F /  9.4 °C 29.83in /  1010hPa NNE 3.0mph /  4.8km/h 3.0mph /  4.8km/h 59% 0.00in /  0mm
05:32 63.5 °F /  17.5 °C 49.4 °F /  9.7 °C 29.84in /  1010.4hPa NNE 1.0mph /  1.6km/h 3.0mph /  4.8km/h 60% 0.00in /  0mm
05:37 63.3 °F /  17.4 °C 49.2 °F /  9.6 °C 29.84in /  1010.4hPa Calm   1.0mph /  1.6km/h 60% 0.00in /  0mm
05:42 62.5 °F /  16.9 °C 49.3 °F /  9.6 °C 29.84in /  1010.4hPa NNE 2.0mph /  3.2km/h 2.0mph /  3.2km/h 62% 0.00in /  0mm
05:47 62.3 °F /  16.8 °C 49.1 °F /  9.5 °C 29.84in /  1010.4hPa NNE 3.0mph /  4.8km/h 3.0mph /  4.8km/h 62% 0.00in /  0mm
05:52 62.6 °F /  17 °C 49.4 °F /  9.7 °C 29.84in /  1010.4hPa North 2.0mph /  3.2km/h 3.0mph /  4.8km/h 62% 0.00in /  0mm
05:57 62.6 °F /  17 °C 49.4 °F /  9.7 °C 29.85in /  1010.7hPa NNE 3.0mph /  4.8km/h 3.0mph /  4.8km/h 62% 0.00in /  0mm
06:02 62.4 °F /  16.9 °C 49.2 °F /  9.6 °C 29.85in /  1010.7hPa NNE 1.0mph /  1.6km/h 3.0mph /  4.8km/h 62% 0.00in /  0mm
06:07 62.2 °F /  16.8 °C 49.5 °F /  9.7 °C 29.86in /  1011.1hPa NNE 3.0mph /  4.8km/h 3.0mph /  4.8km/h 63% 0.00in /  0mm
06:12 62.0 °F /  16.7 °C 49.3 °F /  9.6 °C 29.86in /  1011.1hPa NNE 1.0mph /  1.6km/h 2.0mph /  3.2km/h 63% 0.00in /  0mm
06:17 61.8 °F /  16.6 °C 49.1 °F /  9.5 °C 29.87in /  1011.4hPa NE 2.0mph /  3.2km/h 2.0mph /  3.2km/h 63% 0.00in /  0mm
06:22 61.6 °F /  16.4 °C 49.3 °F /  9.6 °C 29.87in /  1011.4hPa Calm   2.0mph /  3.2km/h 64% 0.00in /  0mm
06:27 61.2 °F /  16.2 °C 49.3 °F /  9.6 °C 29.88in /  1011.7hPa Calm     65% 0.00in /  0mm
06:33 60.6 °F /  15.9 °C 49.2 °F /  9.6 °C 29.88in /  1011.7hPa Calm     66% 0.00in /  0mm
06:38 60.3 °F /  15.7 °C 49.3 °F /  9.6 °C 29.88in /  1011.7hPa Calm     67% 0.00in /  0mm
06:43 60.0 °F /  15.6 °C 49.4 °F /  9.7 °C 29.89in /  1012.1hPa North 2.0mph /  3.2km/h 2.0mph /  3.2km/h 68% 0.00in /  0mm
06:48 59.7 °F /  15.4 °C 49.1 °F /  9.5 °C 29.89in /  1012.1hPa NNE 2.0mph /  3.2km/h 2.0mph /  3.2km/h 68% 0.00in /  0mm
06:53 60.1 °F /  15.6 °C 49.5 °F /  9.7 °C 29.89in /  1012.1hPa NNW 1.0mph /  1.6km/h 3.0mph /  4.8km/h 68% 0.00in /  0mm
06:58 60.8 °F /  16 °C 49.8 °F /  9.9 °C 29.89in /  1012.1hPa NE 5.0mph /  8km/h 5.0mph /  8km/h 67% 0.00in /  0mm
07:03 61.4 °F /  16.3 °C 50.0 °F /  10 °C 29.89in /  1012.1hPa NNE 4.0mph /  6.4km/h 4.0mph /  6.4km/h 66% 0.00in /  0mm
07:08 62.2 °F /  16.8 °C 49.9 °F /  9.9 °C 29.89in /  1012.1hPa NE 1.0mph /  1.6km/h 3.0mph /  4.8km/h 64% 0.00in /  0mm
07:13 62.8 °F /  17.1 °C 50.0 °F /  10 °C 29.89in /  1012.1hPa NE 3.0mph /  4.8km/h 3.0mph /  4.8km/h 63% 0.00in /  0mm
07:18 63.3 °F /  17.4 °C 50.1 °F /  10.1 °C 29.89in /  1012.1hPa NNE 2.0mph /  3.2km/h 4.0mph /  6.4km/h 62% 0.00in /  0mm
07:23 63.7 °F /  17.6 °C 50.5 °F /  10.3 °C 29.90in /  1012.4hPa NNE 1.0mph /  1.6km/h 2.0mph /  3.2km/h 62% 0.00in /  0mm
07:28 64.1 °F /  17.8 °C 50.8 °F /  10.4 °C 29.90in /  1012.4hPa NE 2.0mph /  3.2km/h 3.0mph /  4.8km/h 62% 0.00in /  0mm
07:33 64.2 °F /  17.9 °C 50.9 °F /  10.5 °C 29.90in /  1012.4hPa NE 1.0mph /  1.6km/h 3.0mph /  4.8km/h 62% 0.00in /  0mm
07:38 64.6 °F /  18.1 °C 51.3 °F /  10.7 °C 29.91in /  1012.8hPa NNE 1.0mph /  1.6km/h 1.0mph /  1.6km/h 62% 0.00in /  0mm
07:43 65.0 °F /  18.3 °C 51.2 °F /  10.7 °C 29.91in /  1012.8hPa NNE 3.0mph /  4.8km/h 3.0mph /  4.8km/h 61% 0.00in /  0mm
07:48 65.0 °F /  18.3 °C 51.7 °F /  10.9 °C 29.91in /  1012.8hPa NE 3.0mph /  4.8km/h 4.0mph /  6.4km/h 62% 0.00in /  0mm
07:53 65.1 °F /  18.4 °C 51.8 °F /  11 °C 29.91in /  1012.8hPa NNE 2.0mph /  3.2km/h 4.0mph /  6.4km/h 62% 0.00in /  0mm
07:58 65.4 °F /  18.6 °C 51.6 °F /  10.9 °C 29.91in /  1012.8hPa NE 4.0mph /  6.4km/h 4.0mph /  6.4km/h 61% 0.00in /  0mm
08:03 65.7 °F /  18.7 °C 51.9 °F /  11.1 °C 29.91in /  1012.8hPa NNE 3.0mph /  4.8km/h 6.0mph /  9.7km/h 61% 0.00in /  0mm
08:08 66.1 °F /  18.9 °C 51.8 °F /  11 °C 29.91in /  1012.8hPa NE 3.0mph /  4.8km/h 6.0mph /  9.7km/h 60% 0.00in /  0mm
08:13 66.6 °F /  19.2 °C 52.3 °F /  11.3 °C 29.91in /  1012.8hPa NE 3.0mph /  4.8km/h 5.0mph /  8km/h 60% 0.00in /  0mm
08:18 67.1 °F /  19.5 °C 52.3 °F /  11.3 °C 29.92in /  1013.1hPa NNE 3.0mph /  4.8km/h 5.0mph /  8km/h 59% 0.00in /  0mm
08:23 67.7 °F /  19.8 °C 51.9 °F /  11.1 °C 29.92in /  1013.1hPa NE 3.0mph /  4.8km/h 7.0mph /  11.3km/h 57% 0.00in /  0mm
08:28 68.3 °F /  20.2 °C 52.5 °F /  11.4 °C 29.92in /  1013.1hPa ENE 6.0mph /  9.7km/h 9.0mph /  14.5km/h 57% 0.00in /  0mm
08:33 68.9 °F /  20.5 °C 53.1 °F /  11.7 °C 29.93in /  1013.4hPa NE 2.0mph /  3.2km/h 6.0mph /  9.7km/h 57% 0.00in /  0mm
08:38 69.3 °F /  20.7 °C 53.0 °F /  11.7 °C 29.93in /  1013.4hPa NE 3.0mph /  4.8km/h 6.0mph /  9.7km/h 56% 0.00in /  0mm
08:43 69.6 °F /  20.9 °C 52.7 °F /  11.5 °C 29.93in /  1013.4hPa NE 5.0mph /  8km/h 7.0mph /  11.3km/h 55% 0.00in /  0mm
08:48 69.9 °F /  21.1 °C 53.5 °F /  11.9 °C 29.93in /  1013.4hPa NE 4.0mph /  6.4km/h 8.0mph /  12.9km/h 56% 0.00in /  0mm
08:53 70.2 °F /  21.2 °C 52.8 °F /  11.6 °C 29.93in /  1013.4hPa NE 7.0mph /  11.3km/h 9.0mph /  14.5km/h 54% 0.00in /  0mm
08:58 70.8 °F /  21.6 °C 53.8 °F /  12.1 °C 29.94in /  1013.8hPa NNE 2.0mph /  3.2km/h 7.0mph /  11.3km/h 55% 0.00in /  0mm
09:03 71.4 °F /  21.9 °C 53.9 °F /  12.2 °C 29.94in /  1013.8hPa East 2.0mph /  3.2km/h 6.0mph /  9.7km/h 54% 0.00in /  0mm
09:08 71.9 °F /  22.2 °C 53.9 °F /  12.2 °C 29.94in /  1013.8hPa East 4.0mph /  6.4km/h 7.0mph /  11.3km/h 53% 0.00in /  0mm
09:13 72.3 °F /  22.4 °C 53.7 °F /  12.1 °C 29.94in /  1013.8hPa ESE 5.0mph /  8km/h 6.0mph /  9.7km/h 52% 0.00in /  0mm
09:18 72.6 °F /  22.6 °C 54.0 °F /  12.2 °C 29.94in /  1013.8hPa ENE 4.0mph /  6.4km/h 6.0mph /  9.7km/h 52% 0.00in /  0mm
09:24 73.0 °F /  22.8 °C 53.8 °F /  12.1 °C 29.94in /  1013.8hPa East 6.0mph /  9.7km/h 9.0mph /  14.5km/h 51% 0.00in /  0mm
09:28 73.1 °F /  22.8 °C 53.9 °F /  12.2 °C 29.94in /  1013.8hPa ESE 4.0mph /  6.4km/h 7.0mph /  11.3km/h 51% 0.00in /  0mm
09:33 73.5 °F /  23.1 °C 54.8 °F /  12.7 °C 29.94in /  1013.8hPa ENE 2.0mph /  3.2km/h 7.0mph /  11.3km/h 52% 0.00in /  0mm
09:38 74.0 °F /  23.3 °C 54.7 °F /  12.6 °C 29.94in /  1013.8hPa East 2.0mph /  3.2km/h 6.0mph /  9.7km/h 51% 0.00in /  0mm
09:44 74.5 °F /  23.6 °C 55.7 °F /  13.2 °C 29.94in /  1013.8hPa ESE 3.0mph /  4.8km/h 5.0mph /  8km/h 52% 0.00in /  0mm
09:49 75.1 °F /  23.9 °C 54.7 °F /  12.6 °C 29.94in /  1013.8hPa East 4.0mph /  6.4km/h 8.0mph /  12.9km/h 49% 0.00in /  0mm
09:54 75.0 °F /  23.9 °C 54.6 °F /  12.6 °C 29.94in /  1013.8hPa East 4.0mph /  6.4km/h 7.0mph /  11.3km/h 49% 0.00in /  0mm
09:59 75.2 °F /  24 °C 54.8 °F /  12.7 °C 29.94in /  1013.8hPa SE 3.0mph /  4.8km/h 9.0mph /  14.5km/h 49% 0.00in /  0mm
10:04 75.8 °F /  24.3 °C 55.3 °F /  12.9 °C 29.94in /  1013.8hPa ESE 5.0mph /  8km/h 7.0mph /  11.3km/h 49% 0.00in /  0mm
10:09 76.2 °F /  24.6 °C 55.1 °F /  12.8 °C 29.95in /  1014.1hPa East 7.0mph /  11.3km/h 8.0mph /  12.9km/h 48% 0.00in /  0mm
10:14 76.4 °F /  24.7 °C 55.3 °F /  12.9 °C 29.95in /  1014.1hPa SE 2.0mph /  3.2km/h 7.0mph /  11.3km/h 48% 0.00in /  0mm
10:19 76.6 °F /  24.8 °C 54.9 °F /  12.7 °C 29.95in /  1014.1hPa East 6.0mph /  9.7km/h 9.0mph /  14.5km/h 47% 0.00in /  0mm
10:24 77.3 °F /  25.2 °C 56.1 °F /  13.4 °C 29.95in /  1014.1hPa SE 4.0mph /  6.4km/h 8.0mph /  12.9km/h 48% 0.00in /  0mm
10:29 77.3 °F /  25.2 °C 55.5 °F /  13.1 °C 29.95in /  1014.1hPa East 7.0mph /  11.3km/h 9.0mph /  14.5km/h 47% 0.00in /  0mm
10:34 77.2 °F /  25.1 °C 55.4 °F /  13 °C 29.95in /  1014.1hPa ESE 3.0mph /  4.8km/h 8.0mph /  12.9km/h 47% 0.00in /  0mm
10:39 77.6 °F /  25.3 °C 57.0 °F /  13.9 °C 29.95in /  1014.1hPa East 4.0mph /  6.4km/h 6.0mph /  9.7km/h 49% 0.00in /  0mm
10:44 77.8 °F /  25.4 °C 56.6 °F /  13.7 °C 29.96in /  1014.4hPa ESE 7.0mph /  11.3km/h 7.0mph /  11.3km/h 48% 0.00in /  0mm
10:49 77.9 °F /  25.5 °C 56.1 °F /  13.4 °C 29.95in /  1014.1hPa East 4.0mph /  6.4km/h 8.0mph /  12.9km/h 47% 0.00in /  0mm
10:54 78.0 °F /  25.6 °C 56.2 °F /  13.4 °C 29.95in /  1014.1hPa ESE 2.0mph /  3.2km/h 6.0mph /  9.7km/h 47% 0.00in /  0mm
10:59 78.5 °F /  25.8 °C 56.6 °F /  13.7 °C 29.96in /  1014.4hPa SE 3.0mph /  4.8km/h 8.0mph /  12.9km/h 47% 0.00in /  0mm
11:04 78.8 °F /  26 °C 56.9 °F /  13.8 °C 29.96in /  1014.4hPa SE 2.0mph /  3.2km/h 7.0mph /  11.3km/h 47% 0.00in /  0mm
11:09 79.7 °F /  26.5 °C 58.9 °F /  14.9 °C 29.96in /  1014.4hPa ESE 5.0mph /  8km/h 9.0mph /  14.5km/h 49% 0.00in /  0mm
11:14 80.0 °F /  26.7 °C 57.4 °F /  14.1 °C 29.96in /  1014.4hPa SE 2.0mph /  3.2km/h 6.0mph /  9.7km/h 46% 0.00in /  0mm
11:19 80.1 °F /  26.7 °C 56.9 °F /  13.8 °C 29.96in /  1014.4hPa SSW 2.0mph /  3.2km/h 8.0mph /  12.9km/h 45% 0.00in /  0mm
11:24 80.3 °F /  26.8 °C 57.0 °F /  13.9 °C 29.96in /  1014.4hPa ESE 6.0mph /  9.7km/h 7.0mph /  11.3km/h 45% 0.00in /  0mm
11:29 80.2 °F /  26.8 °C 57.6 °F /  14.2 °C 29.96in /  1014.4hPa SE 2.0mph /  3.2km/h 8.0mph /  12.9km/h 46% 0.00in /  0mm
11:34 80.4 °F /  26.9 °C 57.8 °F /  14.3 °C 29.95in /  1014.1hPa East 3.0mph /  4.8km/h 6.0mph /  9.7km/h 46% 0.00in /  0mm
11:39 80.8 °F /  27.1 °C 58.1 °F /  14.5 °C 29.95in /  1014.1hPa ESE 4.0mph /  6.4km/h 6.0mph /  9.7km/h 46% 0.00in /  0mm
11:44 81.2 °F /  27.3 °C 56.6 °F /  13.7 °C 29.95in /  1014.1hPa SSE 5.0mph /  8km/h 8.0mph /  12.9km/h 43% 0.00in /  0mm
11:49 81.7 °F /  27.6 °C 57.7 °F /  14.3 °C 29.95in /  1014.1hPa SSW 4.0mph /  6.4km/h 6.0mph /  9.7km/h 44% 0.00in /  0mm
11:54 82.0 °F /  27.8 °C 57.3 °F /  14.1 °C 29.96in /  1014.4hPa SE 6.0mph /  9.7km/h 9.0mph /  14.5km/h 43% 0.00in /  0mm
11:59 82.2 °F /  27.9 °C 58.8 °F /  14.9 °C 29.96in /  1014.4hPa SSW 4.0mph /  6.4km/h 7.0mph /  11.3km/h 45% 0.00in /  0mm
12:04 82.6 °F /  28.1 °C 57.2 °F /  14 °C 29.95in /  1014.1hPa SSW 6.0mph /  9.7km/h 7.0mph /  11.3km/h 42% 0.00in /  0mm
12:09 83.0 °F /  28.3 °C 59.5 °F /  15.3 °C 29.95in /  1014.1hPa West 2.0mph /  3.2km/h 3.0mph /  4.8km/h 45% 0.00in /  0mm
12:14 83.9 °F /  28.8 °C 58.4 °F /  14.7 °C 29.95in /  1014.1hPa SE 3.0mph /  4.8km/h 7.0mph /  11.3km/h 42% 0.00in /  0mm
12:19 83.6 °F /  28.7 °C 57.4 °F /  14.1 °C 29.96in /  1014.4hPa NNE 1.0mph /  1.6km/h 5.0mph /  8km/h 41% 0.00in /  0mm
12:24 83.9 °F /  28.8 °C 57.0 °F /  13.9 °C 29.96in /  1014.4hPa SSE 1.0mph /  1.6km/h 7.0mph /  11.3km/h 40% 0.00in /  0mm
12:29 84.4 °F /  29.1 °C 57.5 °F /  14.2 °C 29.96in /  1014.4hPa NNE 3.0mph /  4.8km/h 3.0mph /  4.8km/h 40% 0.00in /  0mm
12:34 84.4 °F /  29.1 °C 59.5 °F /  15.3 °C 29.96in /  1014.4hPa SSE 5.0mph /  8km/h 5.0mph /  8km/h 43% 0.00in /  0mm
12:40 84.7 °F /  29.3 °C 57.7 °F /  14.3 °C 29.96in /  1014.4hPa WSW 3.0mph /  4.8km/h 5.0mph /  8km/h 40% 0.00in /  0mm
12:45 85.0 °F /  29.4 °C 58.0 °F /  14.4 °C 29.96in /  1014.4hPa SSW 4.0mph /  6.4km/h 5.0mph /  8km/h 40% 0.00in /  0mm
12:50 85.2 °F /  29.6 °C 57.5 °F /  14.2 °C 29.96in /  1014.4hPa ESE 2.0mph /  3.2km/h 3.0mph /  4.8km/h 39% 0.00in /  0mm
12:55 85.4 °F /  29.7 °C 57.7 °F /  14.3 °C 29.96in /  1014.4hPa NW 1.0mph /  1.6km/h 2.0mph /  3.2km/h 39% 0.00in /  0mm
13:00 85.3 °F /  29.6 °C 57.6 °F /  14.2 °C 29.96in /  1014.4hPa WNW 3.0mph /  4.8km/h 4.0mph /  6.4km/h 39% 0.00in /  0mm
13:05 85.1 °F /  29.5 °C 56.7 °F /  13.7 °C 29.96in /  1014.4hPa North 3.0mph /  4.8km/h 5.0mph /  8km/h 38% 0.00in /  0mm
13:10 85.5 °F /  29.7 °C 58.5 °F /  14.7 °C 29.96in /  1014.4hPa NE 3.0mph /  4.8km/h 3.0mph /  4.8km/h 40% 0.00in /  0mm
13:15 86.5 °F /  30.3 °C 59.3 °F /  15.2 °C 29.96in /  1014.4hPa NNE 1.0mph /  1.6km/h 3.0mph /  4.8km/h 40% 0.00in /  0mm
13:20 86.9 °F /  30.5 °C 56.8 °F /  13.8 °C 29.95in /  1014.1hPa East 3.0mph /  4.8km/h 6.0mph /  9.7km/h 36% 0.00in /  0mm
13:25 86.5 °F /  30.3 °C 57.2 °F /  14 °C 29.95in /  1014.1hPa NE 4.0mph /  6.4km/h 6.0mph /  9.7km/h 37% 0.00in /  0mm
13:30 86.2 °F /  30.1 °C 56.9 °F /  13.8 °C 29.95in /  1014.1hPa WNW 1.0mph /  1.6km/h 5.0mph /  8km/h 37% 0.00in /  0mm
13:35 87.1 °F /  30.6 °C 56.2 °F /  13.4 °C 29.95in /  1014.1hPa ESE 7.0mph /  11.3km/h 7.0mph /  11.3km/h 35% 0.00in /  0mm
13:40 87.1 °F /  30.6 °C 55.4 °F /  13 °C 29.95in /  1014.1hPa NE 3.0mph /  4.8km/h 6.0mph /  9.7km/h 34% 0.00in /  0mm
13:45 86.6 °F /  30.3 °C 56.5 °F /  13.6 °C 29.95in /  1014.1hPa East 2.0mph /  3.2km/h 3.0mph /  4.8km/h 36% 0.00in /  0mm
13:50 87.6 °F /  30.9 °C 56.6 °F /  13.7 °C 29.95in /  1014.1hPa NE 3.0mph /  4.8km/h 3.0mph /  4.8km/h 35% 0.00in /  0mm
13:55 87.3 °F /  30.7 °C 54.7 °F /  12.6 °C 29.94in /  1013.8hPa East 4.0mph /  6.4km/h 5.0mph /  8km/h 33% 0.00in /  0mm
14:00 86.9 °F /  30.5 °C 54.4 °F /  12.4 °C 29.94in /  1013.8hPa SE 1.0mph /  1.6km/h 6.0mph /  9.7km/h 33% 0.00in /  0mm
14:05 87.5 °F /  30.8 °C 55.7 °F /  13.2 °C 29.94in /  1013.8hPa ESE 4.0mph /  6.4km/h 8.0mph /  12.9km/h 34% 0.00in /  0mm
14:10 87.9 °F /  31.1 °C 56.1 °F /  13.4 °C 29.94in /  1013.8hPa ENE 5.0mph /  8km/h 6.0mph /  9.7km/h 34% 0.00in /  0mm
14:15 87.7 °F /  30.9 °C 55.1 °F /  12.8 °C 29.94in /  1013.8hPa East 5.0mph /  8km/h 5.0mph /  8km/h 33% 0.00in /  0mm
14:20 87.8 °F /  31 °C 57.5 °F /  14.2 °C 29.94in /  1013.8hPa NNE 3.0mph /  4.8km/h 7.0mph /  11.3km/h 36% 0.00in /  0mm
14:25 87.9 °F /  31.1 °C 56.1 °F /  13.4 °C 29.94in /  1013.8hPa ESE 2.0mph /  3.2km/h 3.0mph /  4.8km/h 34% 0.00in /  0mm
14:30 88.1 °F /  31.2 °C 56.2 °F /  13.4 °C 29.94in /  1013.8hPa NNE 7.0mph /  11.3km/h 8.0mph /  12.9km/h 34% 0.00in /  0mm
14:35 88.1 °F /  31.2 °C 57.8 °F /  14.3 °C 29.93in /  1013.4hPa North 4.0mph /  6.4km/h 4.0mph /  6.4km/h 36% 0.00in /  0mm
14:40 88.4 °F /  31.3 °C 55.7 °F /  13.2 °C 29.93in /  1013.4hPa North 6.0mph /  9.7km/h 6.0mph /  9.7km/h 33% 0.00in /  0mm
14:45 88.7 °F /  31.5 °C 55.9 °F /  13.3 °C 29.93in /  1013.4hPa NNW 3.0mph /  4.8km/h 4.0mph /  6.4km/h 33% 0.00in /  0mm
14:50 88.8 °F /  31.6 °C 56.0 °F /  13.3 °C 29.93in /  1013.4hPa NNE 2.0mph /  3.2km/h 5.0mph /  8km/h 33% 0.00in /  0mm
14:55 89.6 °F /  32 °C 55.9 °F /  13.3 °C 29.93in /  1013.4hPa NW 2.0mph /  3.2km/h 5.0mph /  8km/h 32% 0.00in /  0mm
15:00 89.5 °F /  31.9 °C 56.6 °F /  13.7 °C 29.93in /  1013.4hPa North 2.0mph /  3.2km/h 7.0mph /  11.3km/h 33% 0.00in /  0mm
15:05 89.6 °F /  32 °C 55.9 °F /  13.3 °C 29.93in /  1013.4hPa NW 2.0mph /  3.2km/h 4.0mph /  6.4km/h 32% 0.00in /  0mm
15:10 90.1 °F /  32.3 °C 56.3 °F /  13.5 °C 29.93in /  1013.4hPa NE 5.0mph /  8km/h 5.0mph /  8km/h 32% 0.00in /  0mm
15:15 90.0 °F /  32.2 °C 57.1 °F /  13.9 °C 29.93in /  1013.4hPa NW 2.0mph /  3.2km/h 5.0mph /  8km/h 33% 0.00in /  0mm
15:20 90.2 °F /  32.3 °C 56.4 °F /  13.6 °C 29.92in /  1013.1hPa WNW 3.0mph /  4.8km/h 3.0mph /  4.8km/h 32% 0.00in /  0mm
15:26 90.5 °F /  32.5 °C 55.8 °F /  13.2 °C 29.92in /  1013.1hPa West 1.0mph /  1.6km/h 4.0mph /  6.4km/h 31% 0.00in /  0mm
15:31 91.4 °F /  33 °C 57.4 °F /  14.1 °C 29.92in /  1013.1hPa Calm   5.0mph /  8km/h 32% 0.00in /  0mm
15:36 92.6 °F /  33.7 °C 57.6 °F /  14.2 °C 29.92in /  1013.1hPa SW 1.0mph /  1.6km/h 2.0mph /  3.2km/h 31% 0.00in /  0mm
15:41 92.7 °F /  33.7 °C 55.8 °F /  13.2 °C 29.92in /  1013.1hPa NNE 5.0mph /  8km/h 6.0mph /  9.7km/h 29% 0.00in /  0mm
15:46 91.3 °F /  32.9 °C 52.7 °F /  11.5 °C 29.92in /  1013.1hPa NE 2.0mph /  3.2km/h 10.0mph /  16.1km/h 27% 0.00in /  0mm
15:51 91.1 °F /  32.8 °C 56.3 °F /  13.5 °C 29.92in /  1013.1hPa NNE 2.0mph /  3.2km/h 4.0mph /  6.4km/h 31% 0.00in /  0mm
15:56 91.8 °F /  33.2 °C 55.0 °F /  12.8 °C 29.91in /  1012.8hPa West 1.0mph /  1.6km/h 5.0mph /  8km/h 29% 0.00in /  0mm
16:01 92.5 °F /  33.6 °C 54.7 °F /  12.6 °C 29.91in /  1012.8hPa SSW 3.0mph /  4.8km/h 6.0mph /  9.7km/h 28% 0.00in /  0mm
16:06 93.0 °F /  33.9 °C 57.0 °F /  13.9 °C 29.91in /  1012.8hPa ENE 2.0mph /  3.2km/h 3.0mph /  4.8km/h 30% 0.00in /  0mm
16:11 93.2 °F /  34 °C 55.3 °F /  12.9 °C 29.91in /  1012.8hPa SE 1.0mph /  1.6km/h 4.0mph /  6.4km/h 28% 0.00in /  0mm
16:16 93.4 °F /  34.1 °C 55.5 °F /  13.1 °C 29.91in /  1012.8hPa NE 4.0mph /  6.4km/h 5.0mph /  8km/h 28% 0.00in /  0mm
16:21 92.9 °F /  33.8 °C 53.0 °F /  11.7 °C 29.91in /  1012.8hPa SW 3.0mph /  4.8km/h 6.0mph /  9.7km/h 26% 0.00in /  0mm
16:26 92.7 °F /  33.7 °C 53.9 °F /  12.2 °C 29.91in /  1012.8hPa NNW 2.0mph /  3.2km/h 5.0mph /  8km/h 27% 0.00in /  0mm
16:31 92.6 °F /  33.7 °C 53.8 °F /  12.1 °C 29.91in /  1012.8hPa ENE 4.0mph /  6.4km/h 10.0mph /  16.1km/h 27% 0.00in /  0mm
16:36 92.5 °F /  33.6 °C 56.6 °F /  13.7 °C 29.91in /  1012.8hPa NW 5.0mph /  8km/h 7.0mph /  11.3km/h 30% 0.00in /  0mm
16:41 92.7 °F /  33.7 °C 56.8 °F /  13.8 °C 29.91in /  1012.8hPa NNW 2.0mph /  3.2km/h 3.0mph /  4.8km/h 30% 0.00in /  0mm
16:46 93.1 °F /  33.9 °C 55.2 °F /  12.9 °C 29.91in /  1012.8hPa NW 1.0mph /  1.6km/h 4.0mph /  6.4km/h 28% 0.00in /  0mm
16:51 93.6 °F /  34.2 °C 57.5 °F /  14.2 °C 29.91in /  1012.8hPa WNW 4.0mph /  6.4km/h 4.0mph /  6.4km/h 30% 0.00in /  0mm
16:56 93.1 °F /  33.9 °C 55.2 °F /  12.9 °C 29.91in /  1012.8hPa NW 4.0mph /  6.4km/h 4.0mph /  6.4km/h 28% 0.00in /  0mm
17:02 93.1 °F /  33.9 °C 54.2 °F /  12.3 °C 29.91in /  1012.8hPa WNW 4.0mph /  6.4km/h 6.0mph /  9.7km/h 27% 0.00in /  0mm
17:06 93.1 °F /  33.9 °C 54.2 °F /  12.3 °C 29.91in /  1012.8hPa West 2.0mph /  3.2km/h 5.0mph /  8km/h 27% 0.00in /  0mm
17:12 93.5 °F /  34.2 °C 54.5 °F /  12.5 °C 29.90in /  1012.4hPa SSW 1.0mph /  1.6km/h 3.0mph /  4.8km/h 27% 0.00in /  0mm
17:17 94.3 °F /  34.6 °C 54.2 °F /  12.3 °C 29.90in /  1012.4hPa WSW 2.0mph /  3.2km/h 2.0mph /  3.2km/h 26% 0.00in /  0mm
17:22 94.5 °F /  34.7 °C 55.4 °F /  13 °C 29.90in /  1012.4hPa WNW 3.0mph /  4.8km/h 5.0mph /  8km/h 27% 0.00in /  0mm
17:27 94.0 °F /  34.4 °C 55.0 °F /  12.8 °C 29.90in /  1012.4hPa NNW 2.0mph /  3.2km/h 5.0mph /  8km/h 27% 0.00in /  0mm
17:32 94.0 °F /  34.4 °C 52.9 °F /  11.6 °C 29.90in /  1012.4hPa NNW 3.0mph /  4.8km/h 4.0mph /  6.4km/h 25% 0.00in /  0mm
17:37 94.0 °F /  34.4 °C 55.0 °F /  12.8 °C 29.90in /  1012.4hPa NW 4.0mph /  6.4km/h 4.0mph /  6.4km/h 27% 0.00in /  0mm
17:42 94.3 °F /  34.6 °C 55.2 °F /  12.9 °C 29.90in /  1012.4hPa WSW 2.0mph /  3.2km/h 2.0mph /  3.2km/h 27% 0.00in /  0mm
17:47 94.5 °F /  34.7 °C 55.4 °F /  13 °C 29.90in /  1012.4hPa Calm   1.0mph /  1.6km/h 27% 0.00in /  0mm
17:52 94.5 °F /  34.7 °C 55.4 °F /  13 °C 29.91in /  1012.8hPa NE 2.0mph /  3.2km/h 3.0mph /  4.8km/h 27% 0.00in /  0mm
17:57 94.7 °F /  34.8 °C 54.5 °F /  12.5 °C 29.91in /  1012.8hPa WSW 1.0mph /  1.6km/h 1.0mph /  1.6km/h 26% 0.00in /  0mm
18:02 95.5 °F /  35.3 °C 55.2 °F /  12.9 °C 29.90in /  1012.4hPa SSW 2.0mph /  3.2km/h 3.0mph /  4.8km/h 26% 0.00in /  0mm
18:07 95.4 °F /  35.2 °C 54.0 °F /  12.2 °C 29.90in /  1012.4hPa West 1.0mph /  1.6km/h 3.0mph /  4.8km/h 25% 0.00in /  0mm
18:12 95.1 °F /  35.1 °C 55.9 °F /  13.3 °C 29.90in /  1012.4hPa Calm   4.0mph /  6.4km/h 27% 0.00in /  0mm
18:17 95.3 °F /  35.2 °C 57.1 °F /  13.9 °C 29.90in /  1012.4hPa South 5.0mph /  8km/h 6.0mph /  9.7km/h 28% 0.00in /  0mm
18:22 95.2 °F /  35.1 °C 58.0 °F /  14.4 °C 29.90in /  1012.4hPa SSW 2.0mph /  3.2km/h 4.0mph /  6.4km/h 29% 0.00in /  0mm
18:27 94.9 °F /  34.9 °C 56.7 °F /  13.7 °C 29.89in /  1012.1hPa SW 3.0mph /  4.8km/h 6.0mph /  9.7km/h 28% 0.00in /  0mm
18:32 94.5 °F /  34.7 °C 54.3 °F /  12.4 °C 29.89in /  1012.1hPa South 3.0mph /  4.8km/h 5.0mph /  8km/h 26% 0.00in /  0mm
18:37 94.4 °F /  34.7 °C 55.3 °F /  12.9 °C 29.89in /  1012.1hPa WNW 1.0mph /  1.6km/h 3.0mph /  4.8km/h 27% 0.00in /  0mm
18:42 94.8 °F /  34.9 °C 57.6 °F /  14.2 °C 29.89in /  1012.1hPa SE 2.0mph /  3.2km/h 5.0mph /  8km/h 29% 0.00in /  0mm
18:47 94.5 °F /  34.7 °C 55.4 °F /  13 °C 29.89in /  1012.1hPa SW 5.0mph /  8km/h 6.0mph /  9.7km/h 27% 0.00in /  0mm
18:52 94.0 °F /  34.4 °C 56.9 °F /  13.8 °C 29.89in /  1012.1hPa SSW 3.0mph /  4.8km/h 7.0mph /  11.3km/h 29% 0.00in /  0mm
18:57 94.2 °F /  34.6 °C 57.1 °F /  13.9 °C 29.89in /  1012.1hPa SW 6.0mph /  9.7km/h 6.0mph /  9.7km/h 29% 0.00in /  0mm
19:02 94.2 °F /  34.6 °C 56.1 °F /  13.4 °C 29.89in /  1012.1hPa South 3.0mph /  4.8km/h 4.0mph /  6.4km/h 28% 0.00in /  0mm
19:07 94.4 °F /  34.7 °C 56.3 °F /  13.5 °C 29.89in /  1012.1hPa WSW 2.0mph /  3.2km/h 4.0mph /  6.4km/h 28% 0.00in /  0mm
19:12 94.0 °F /  34.4 °C 56.9 °F /  13.8 °C 29.89in /  1012.1hPa SW 4.0mph /  6.4km/h 5.0mph /  8km/h 29% 0.00in /  0mm
19:17 93.9 °F /  34.4 °C 56.8 °F /  13.8 °C 29.89in /  1012.1hPa South 5.0mph /  8km/h 5.0mph /  8km/h 29% 0.00in /  0mm
19:22 93.9 °F /  34.4 °C 57.8 °F /  14.3 °C 29.90in /  1012.4hPa SW 3.0mph /  4.8km/h 3.0mph /  4.8km/h 30% 0.00in /  0mm
19:27 93.9 °F /  34.4 °C 57.8 °F /  14.3 °C 29.89in /  1012.1hPa SW 3.0mph /  4.8km/h 4.0mph /  6.4km/h 30% 0.00in /  0mm
19:32 93.6 °F /  34.2 °C 57.5 °F /  14.2 °C 29.90in /  1012.4hPa SSW 1.0mph /  1.6km/h 3.0mph /  4.8km/h 30% 0.00in /  0mm
19:37 93.6 °F /  34.2 °C 56.6 °F /  13.7 °C 29.90in /  1012.4hPa SSW 1.0mph /  1.6km/h 3.0mph /  4.8km/h 29% 0.00in /  0mm
19:42 93.7 °F /  34.3 °C 57.6 °F /  14.2 °C 29.90in /  1012.4hPa South 1.0mph /  1.6km/h 3.0mph /  4.8km/h 30% 0.00in /  0mm
19:47 93.5 °F /  34.2 °C 56.5 °F /  13.6 °C 29.90in /  1012.4hPa SSW 2.0mph /  3.2km/h 4.0mph /  6.4km/h 29% 0.00in /  0mm
19:52 93.4 °F /  34.1 °C 56.4 °F /  13.6 °C 29.90in /  1012.4hPa SSW 2.0mph /  3.2km/h 2.0mph /  3.2km/h 29% 0.00in /  0mm
19:57 93.3 °F /  34.1 °C 57.3 °F /  14.1 °C 29.90in /  1012.4hPa SSE 2.0mph /  3.2km/h 3.0mph /  4.8km/h 30% 0.00in /  0mm
20:02 92.8 °F /  33.8 °C 59.5 °F /  15.3 °C 29.90in /  1012.4hPa SSE 2.0mph /  3.2km/h 4.0mph /  6.4km/h 33% 0.00in /  0mm
20:08 92.0 °F /  33.3 °C 59.6 °F /  15.3 °C 29.90in /  1012.4hPa SE 2.0mph /  3.2km/h 2.0mph /  3.2km/h 34% 0.00in /  0mm
20:13 91.5 °F /  33.1 °C 60.8 °F /  16 °C 29.90in /  1012.4hPa SE 1.0mph /  1.6km/h 2.0mph /  3.2km/h 36% 0.00in /  0mm
20:18 91.1 °F /  32.8 °C 60.5 °F /  15.8 °C 29.90in /  1012.4hPa SE 2.0mph /  3.2km/h 2.0mph /  3.2km/h 36% 0.00in /  0mm
20:23 90.6 °F /  32.6 °C 60.8 °F /  16 °C 29.90in /  1012.4hPa SE 2.0mph /  3.2km/h 2.0mph /  3.2km/h 37% 0.00in /  0mm
20:28 90.2 °F /  32.3 °C 58.9 °F /  14.9 °C 29.90in /  1012.4hPa SE 3.0mph /  4.8km/h 3.0mph /  4.8km/h 35% 0.00in /  0mm
20:33 89.8 °F /  32.1 °C 59.3 °F /  15.2 °C 29.90in /  1012.4hPa SE 3.0mph /  4.8km/h 3.0mph /  4.8km/h 36% 0.00in /  0mm
20:38 89.2 °F /  31.8 °C 59.5 °F /  15.3 °C 29.90in /  1012.4hPa SE 2.0mph /  3.2km/h 2.0mph /  3.2km/h 37% 0.00in /  0mm
20:43 88.8 °F /  31.6 °C 59.2 °F /  15.1 °C 29.90in /  1012.4hPa ESE 2.0mph /  3.2km/h 3.0mph /  4.8km/h 37% 0.00in /  0mm
20:48 88.3 °F /  31.3 °C 59.5 °F /  15.3 °C 29.90in /  1012.4hPa SE 2.0mph /  3.2km/h 3.0mph /  4.8km/h 38% 0.00in /  0mm
20:53 87.5 °F /  30.8 °C 58.8 °F /  14.9 °C 29.90in /  1012.4hPa SE 2.0mph /  3.2km/h 3.0mph /  4.8km/h 38% 0.00in /  0mm
20:58 86.7 °F /  30.4 °C 58.8 °F /  14.9 °C 29.91in /  1012.8hPa SE 2.0mph /  3.2km/h 2.0mph /  3.2km/h 39% 0.00in /  0mm
21:03 86.0 °F /  30 °C 59.6 °F /  15.3 °C 29.91in /  1012.8hPa Calm   3.0mph /  4.8km/h 41% 0.00in /  0mm
21:08 84.8 °F /  29.3 °C 59.2 °F /  15.1 °C 29.91in /  1012.8hPa Calm   1.0mph /  1.6km/h 42% 0.00in /  0mm
21:13 83.7 °F /  28.7 °C 59.5 °F /  15.3 °C 29.90in /  1012.4hPa Calm     44% 0.00in /  0mm
21:18 82.9 °F /  28.3 °C 59.4 °F /  15.2 °C 29.91in /  1012.8hPa Calm   1.0mph /  1.6km/h 45% 0.00in /  0mm
21:23 82.5 °F /  28.1 °C 59.0 °F /  15 °C 29.91in /  1012.8hPa SE 1.0mph /  1.6km/h 1.0mph /  1.6km/h 45% 0.00in /  0mm
21:28 82.0 °F /  27.8 °C 58.6 °F /  14.8 °C 29.91in /  1012.8hPa Calm   1.0mph /  1.6km/h 45% 0.00in /  0mm
21:33 81.3 °F /  27.4 °C 59.2 °F /  15.1 °C 29.91in /  1012.8hPa Calm     47% 0.00in /  0mm
21:38 80.4 °F /  26.9 °C 58.9 °F /  14.9 °C 29.91in /  1012.8hPa Calm     48% 0.00in /  0mm
21:43 79.7 °F /  26.5 °C 59.4 °F /  15.2 °C 29.91in /  1012.8hPa Calm     50% 0.00in /  0mm
21:48 78.9 °F /  26.1 °C 58.1 °F /  14.5 °C 29.91in /  1012.8hPa Calm     49% 0.00in /  0mm
21:53 78.2 °F /  25.7 °C 60.2 °F /  15.7 °C 29.91in /  1012.8hPa SW 1.0mph /  1.6km/h 1.0mph /  1.6km/h 54% 0.00in /  0mm
21:58 77.7 °F /  25.4 °C 60.3 °F /  15.7 °C 29.91in /  1012.8hPa Calm     55% 0.00in /  0mm
22:03 77.3 °F /  25.2 °C 59.9 °F /  15.5 °C 29.91in /  1012.8hPa SW 1.0mph /  1.6km/h 1.0mph /  1.6km/h 55% 0.00in /  0mm
22:09 77.9 °F /  25.5 °C 58.9 °F /  14.9 °C 29.91in /  1012.8hPa Calm   1.0mph /  1.6km/h 52% 0.00in /  0mm
22:14 78.5 °F /  25.8 °C 58.3 °F /  14.6 °C 29.91in /  1012.8hPa Calm   1.0mph /  1.6km/h 50% 0.00in /  0mm
22:19 78.5 °F /  25.8 °C 60.5 °F /  15.8 °C 29.91in /  1012.8hPa Calm     54% 0.00in /  0mm
22:24 77.5 °F /  25.3 °C 59.0 °F /  15 °C 29.92in /  1013.1hPa Calm     53% 0.00in /  0mm
22:29 76.8 °F /  24.9 °C 58.9 °F /  14.9 °C 29.92in /  1013.1hPa Calm     54% 0.00in /  0mm
22:34 76.2 °F /  24.6 °C 58.9 °F /  14.9 °C 29.92in /  1013.1hPa Calm     55% 0.00in /  0mm
22:39 75.9 °F /  24.4 °C 58.6 °F /  14.8 °C 29.92in /  1013.1hPa Calm     55% 0.00in /  0mm
22:44 75.6 °F /  24.2 °C 57.8 °F /  14.3 °C 29.92in /  1013.1hPa Calm     54% 0.00in /  0mm
22:49 75.5 °F /  24.2 °C 59.2 °F /  15.1 °C 29.92in /  1013.1hPa Calm     57% 0.00in /  0mm
22:54 75.4 °F /  24.1 °C 59.1 °F /  15.1 °C 29.92in /  1013.1hPa Calm     57% 0.00in /  0mm
22:59 74.9 °F /  23.8 °C 58.7 °F /  14.8 °C 29.93in /  1013.4hPa Calm     57% 0.00in /  0mm
23:04 74.3 °F /  23.5 °C 59.1 °F /  15.1 °C 29.93in /  1013.4hPa Calm     59% 0.00in /  0mm
23:09 74.8 °F /  23.8 °C 58.6 °F /  14.8 °C 29.92in /  1013.1hPa Calm     57% 0.00in /  0mm
23:14 75.3 °F /  24.1 °C 60.5 °F /  15.8 °C 29.93in /  1013.4hPa SW 1.0mph /  1.6km/h 1.0mph /  1.6km/h 60% 0.00in /  0mm
23:19 74.8 °F /  23.8 °C 59.0 °F /  15 °C 29.93in /  1013.4hPa Calm   1.0mph /  1.6km/h 58% 0.00in /  0mm
23:24 74.5 °F /  23.6 °C 58.8 °F /  14.9 °C 29.93in /  1013.4hPa Calm     58% 0.00in /  0mm
23:29 73.9 °F /  23.3 °C 59.2 °F /  15.1 °C 29.93in /  1013.4hPa Calm     60% 0.00in /  0mm
23:34 73.5 °F /  23.1 °C 58.3 °F /  14.6 °C 29.93in /  1013.4hPa Calm     59% 0.00in /  0mm
23:39 73.0 °F /  22.8 °C 58.3 °F /  14.6 °C 29.93in /  1013.4hPa Calm     60% 0.00in /  0mm
23:44 72.4 °F /  22.4 °C 58.7 °F /  14.8 °C 29.93in /  1013.4hPa Calm     62% 0.00in /  0mm
23:49 72.6 °F /  22.6 °C 59.3 °F /  15.2 °C 29.93in /  1013.4hPa SW 1.0mph /  1.6km/h 1.0mph /  1.6km/h 63% 0.00in /  0mm
23:54 72.0 °F /  22.2 °C 60.5 °F /  15.8 °C 29.94in /  1013.8hPa WNW 1.0mph /  1.6km/h 2.0mph /  3.2km/h 67% 0.00in /  0mm
23:59 71.8 °F /  22.1 °C 60.7 °F /  15.9 °C 29.94in /  1013.8hPa Calm   1.0mph /  1.6km/h 68% 0.00in /  0mm
Compliments of Weather Underground